createdAt,value
2023-04-15T00:00:58.587Z,79.85
2023-04-15T00:03:25.525Z,78.24
2023-04-15T00:05:52.205Z,79.83
2023-04-15T00:08:18.743Z,78.32
2023-04-15T00:10:46.691Z,78.67
2023-04-15T00:13:13.332Z,78.81
2023-04-15T00:15:39.847Z,79.14
2023-04-15T00:18:07.450Z,79.50
2023-04-15T00:20:34.364Z,79.24
2023-04-15T00:23:02.698Z,80.57
2023-04-15T00:25:29.382Z,80.36
2023-04-15T00:27:55.877Z,80.17
2023-04-15T00:30:22.610Z,80.34
2023-04-15T00:32:49.582Z,80.58
2023-04-15T00:35:16.553Z,80.51
2023-04-15T00:37:44.840Z,81.23
2023-04-15T00:40:13.824Z,80.54
2023-04-15T00:42:40.843Z,80.71
2023-04-15T00:45:08.884Z,81.30
2023-04-15T00:47:37.288Z,81.26
2023-04-15T00:50:04.028Z,80.94
2023-04-15T00:52:30.789Z,81.16
2023-04-15T00:54:57.593Z,81.91
2023-04-15T00:57:24.061Z,83.63
2023-04-15T00:59:52.678Z,81.98
2023-04-15T01:02:19.636Z,82.61
2023-04-15T01:04:46.147Z,83.26
2023-04-15T01:07:12.564Z,82.73
2023-04-15T01:09:39.154Z,83.52
2023-04-15T01:12:07.205Z,84.26
2023-04-15T01:14:33.993Z,84.53
2023-04-15T01:17:00.820Z,83.95
2023-04-15T01:19:27.646Z,84.55
2023-04-15T01:21:54.573Z,83.93
2023-04-15T01:24:21.337Z,83.55
2023-04-15T01:26:49.756Z,83.66
2023-04-15T01:29:16.564Z,84.86
2023-04-15T01:31:51.707Z,85.91
2023-04-15T01:34:18.403Z,84.04
2023-04-15T01:36:44.969Z,86.76
2023-04-15T01:39:11.644Z,85.82
2023-04-15T01:41:38.485Z,86.52
2023-04-15T01:44:05.016Z,87.99
2023-04-15T01:46:31.476Z,87.96
2023-04-15T01:48:58.238Z,88.22
2023-04-15T01:51:24.918Z,90.02
2023-04-15T01:53:52.235Z,90.63
2023-04-15T01:56:18.994Z,87.17
2023-04-15T01:58:45.577Z,90.64
2023-04-15T02:01:13.161Z,89.41
2023-04-15T02:03:39.856Z,90.95
2023-04-15T02:06:06.320Z,91.75
2023-04-15T02:08:32.731Z,91.40
2023-04-15T02:10:59.175Z,91.35
2023-04-15T02:13:25.704Z,93.10
2023-04-15T02:15:52.730Z,94.30
2023-04-15T02:18:19.161Z,93.26
2023-04-15T02:20:46.863Z,93.11
2023-04-15T02:23:13.451Z,94.45
2023-04-15T02:25:39.978Z,95.45
2023-04-15T02:28:06.700Z,93.32
2023-04-15T02:30:33.951Z,95.94
2023-04-15T02:33:01.194Z,96.50
2023-04-15T02:35:27.849Z,95.19
2023-04-15T02:37:54.457Z,94.22
2023-04-15T02:40:21.734Z,96.33
2023-04-15T02:42:48.196Z,97.69
2023-04-15T02:45:14.640Z,98.31
2023-04-15T02:47:41.730Z,97.36
2023-04-15T02:50:09.849Z,96.25
2023-04-15T02:52:36.277Z,98.54
2023-04-15T02:55:04.457Z,100.00
2023-04-15T02:57:30.988Z,99.77
2023-04-15T02:59:57.466Z,97.95
2023-04-15T03:02:24.597Z,100.00
2023-04-15T03:04:51.219Z,99.78
2023-04-15T03:07:18.669Z,100.00
2023-04-15T03:09:46.176Z,100.00
2023-04-15T03:12:12.609Z,100.00
2023-04-15T03:14:39.060Z,100.00
2023-04-15T03:17:05.527Z,100.00
2023-04-15T03:19:31.938Z,99.11
2023-04-15T03:21:58.307Z,100.00
2023-04-15T03:24:24.915Z,100.00
2023-04-15T03:26:51.491Z,100.00
2023-04-15T03:29:17.941Z,100.00
2023-04-15T03:31:44.449Z,100.00
2023-04-15T03:34:11.002Z,100.00
2023-04-15T03:36:37.563Z,100.00
2023-04-15T03:39:04.417Z,100.00
2023-04-15T03:41:31.053Z,100.00
2023-04-15T03:43:57.519Z,100.00
2023-04-15T03:46:24.288Z,100.00
2023-04-15T03:48:50.656Z,100.00
2023-04-15T03:51:17.116Z,100.00
2023-04-15T03:53:43.618Z,100.00
2023-04-15T03:56:10.069Z,100.00
2023-04-15T03:58:36.678Z,100.00
2023-04-15T04:01:03.658Z,100.00
2023-04-15T04:03:30.322Z,100.00
2023-04-15T04:05:56.968Z,100.00
2023-04-15T04:08:23.551Z,100.00
2023-04-15T04:10:50.045Z,100.00
2023-04-15T04:13:16.488Z,100.00
2023-04-15T04:15:43.094Z,100.00
2023-04-15T04:18:09.572Z,100.00
2023-04-15T04:20:36.078Z,100.00
2023-04-15T04:23:02.580Z,100.00
2023-04-15T04:25:29.027Z,100.00
2023-04-15T04:27:55.508Z,100.00
2023-04-15T04:30:22.187Z,100.00
2023-04-15T04:32:50.111Z,100.00
2023-04-15T04:35:16.676Z,100.00
2023-04-15T04:37:43.372Z,100.00
2023-04-15T04:40:10.661Z,100.00
2023-04-15T04:42:39.744Z,100.00
2023-04-15T04:45:07.575Z,100.00
2023-04-15T04:47:34.086Z,100.00
2023-04-15T04:50:00.571Z,100.00
2023-04-15T04:52:27.206Z,100.00
2023-04-15T04:54:53.600Z,100.00
2023-04-15T04:57:19.990Z,100.00
2023-04-15T04:59:46.753Z,100.00
2023-04-15T05:02:13.414Z,100.00
2023-04-15T05:04:41.671Z,100.00
2023-04-15T05:07:08.545Z,100.00
2023-04-15T05:09:36.676Z,100.00
2023-04-15T05:12:04.678Z,100.00
2023-04-15T05:14:32.346Z,100.00
2023-04-15T05:16:58.870Z,100.00
2023-04-15T05:19:25.523Z,100.00
2023-04-15T05:21:52.326Z,100.00
2023-04-15T05:24:18.766Z,100.00
2023-04-15T05:26:45.215Z,100.00
2023-04-15T05:29:11.931Z,100.00
2023-04-15T05:31:38.644Z,100.00
2023-04-15T05:34:05.430Z,100.00
2023-04-15T05:36:32.044Z,100.00
2023-04-15T05:38:58.576Z,100.00
2023-04-15T05:41:25.284Z,100.00
2023-04-15T05:43:54.901Z,100.00
2023-04-15T05:46:21.947Z,100.00
2023-04-15T05:48:48.457Z,100.00
2023-04-15T05:51:15.089Z,100.00
2023-04-15T05:53:41.779Z,100.00
2023-04-15T05:56:08.312Z,100.00
2023-04-15T05:58:34.742Z,100.00
2023-04-15T06:01:01.220Z,100.00
2023-04-15T06:03:27.710Z,100.00
2023-04-15T06:05:54.330Z,100.00
2023-04-15T06:08:21.515Z,100.00
2023-04-15T06:10:48.042Z,100.00
2023-04-15T06:13:14.560Z,100.00
2023-04-15T06:15:41.228Z,100.00
2023-04-15T06:18:07.598Z,100.00
2023-04-15T06:20:34.174Z,100.00
2023-04-15T06:23:01.064Z,100.00
2023-04-15T06:25:27.520Z,100.00
2023-04-15T06:27:54.010Z,100.00
2023-04-15T06:30:21.900Z,100.00
2023-04-15T06:32:49.495Z,100.00
2023-04-15T06:35:16.061Z,100.00
2023-04-15T06:37:42.446Z,100.00
2023-04-15T06:40:10.063Z,100.00
2023-04-15T06:42:38.425Z,100.00
2023-04-15T06:45:06.899Z,100.00
2023-04-15T06:47:33.352Z,100.00
2023-04-15T06:49:59.988Z,100.00
2023-04-15T06:52:26.510Z,100.00
2023-04-15T06:54:52.936Z,100.00
2023-04-15T06:57:19.437Z,100.00
2023-04-15T06:59:46.142Z,100.00
2023-04-15T07:02:14.412Z,100.00
2023-04-15T07:04:41.074Z,100.00
2023-04-15T07:07:08.010Z,100.00
2023-04-15T07:09:34.493Z,100.00
2023-04-15T07:12:00.950Z,100.00
2023-04-15T07:14:27.846Z,100.00
2023-04-15T07:16:54.369Z,100.00
2023-04-15T07:19:20.920Z,100.00
2023-04-15T07:21:47.599Z,100.00
2023-04-15T07:24:18.080Z,100.00
2023-04-15T07:26:45.198Z,100.00
2023-04-15T07:29:12.021Z,98.85
2023-04-15T07:31:38.479Z,98.87
2023-04-15T07:34:05.460Z,100.00
2023-04-15T07:36:31.886Z,97.20
2023-04-15T07:38:58.519Z,95.02
2023-04-15T07:41:25.851Z,96.57
2023-04-15T07:43:52.319Z,93.74
2023-04-15T07:46:18.833Z,94.89
2023-04-15T07:48:45.344Z,94.32
2023-04-15T07:51:12.897Z,95.23
2023-04-15T07:53:39.303Z,95.34
2023-04-15T07:56:06.174Z,93.88
2023-04-15T07:58:32.736Z,95.32
2023-04-15T08:01:01.218Z,96.01
2023-04-15T08:03:28.192Z,93.47
2023-04-15T08:05:54.949Z,92.16
2023-04-15T08:08:22.325Z,90.34
2023-04-15T08:10:49.788Z,90.03
2023-04-15T08:13:18.273Z,88.69
2023-04-15T08:15:44.873Z,86.08
2023-04-15T08:18:11.376Z,89.12
2023-04-15T08:20:38.471Z,89.45
2023-04-15T08:23:05.072Z,85.11
2023-04-15T08:25:31.826Z,84.66
2023-04-15T08:27:58.367Z,85.52
2023-04-15T08:30:25.198Z,82.74
2023-04-15T08:32:51.789Z,82.85
2023-04-15T08:35:18.326Z,81.89
2023-04-15T08:37:44.729Z,82.56
2023-04-15T08:40:11.663Z,82.24
2023-04-15T08:42:44.924Z,79.68
2023-04-15T08:45:11.702Z,78.80
2023-04-15T08:47:39.878Z,77.39
2023-04-15T08:50:09.678Z,76.95
2023-04-15T08:52:36.947Z,76.65
2023-04-15T08:55:04.836Z,77.93
2023-04-15T08:57:33.495Z,77.92
2023-04-15T09:00:03.098Z,77.45
2023-04-15T09:02:31.661Z,76.59
2023-04-15T09:04:58.154Z,77.14
2023-04-15T09:07:24.965Z,77.19
2023-04-15T09:09:52.351Z,78.74
2023-04-15T09:12:18.819Z,78.89
2023-04-15T09:14:49.506Z,76.20
2023-04-15T09:17:19.715Z,75.12
2023-04-15T09:19:46.706Z,75.78
2023-04-15T09:22:13.313Z,75.48
2023-04-15T09:24:42.217Z,74.97
2023-04-15T09:27:08.896Z,73.12
2023-04-15T09:29:35.492Z,73.12
2023-04-15T09:32:15.585Z,71.88
2023-04-15T09:34:42.737Z,73.03
2023-04-15T09:37:10.877Z,70.77
2023-04-15T09:39:51.127Z,71.17
2023-04-15T09:42:24.117Z,72.37
2023-04-15T09:44:52.695Z,70.48
2023-04-15T09:47:32.179Z,70.89
2023-04-15T09:50:00.419Z,71.53
2023-04-15T09:52:28.603Z,70.29
2023-04-15T09:54:58.806Z,68.69
2023-04-15T09:57:25.757Z,67.00
2023-04-15T09:59:52.322Z,66.15
2023-04-15T10:02:21.298Z,65.51
2023-04-15T10:04:49.097Z,65.71
2023-04-15T10:07:16.304Z,66.97
2023-04-15T10:09:45.772Z,67.72
2023-04-15T10:12:12.821Z,64.90
2023-04-15T10:14:41.482Z,63.63
2023-04-15T10:17:11.676Z,64.92
2023-04-15T10:19:38.467Z,64.06
2023-04-15T10:22:05.186Z,63.36
2023-04-15T10:24:32.054Z,61.70
2023-04-15T10:26:59.977Z,62.96
2023-04-15T10:29:27.327Z,60.35
2023-04-15T10:31:58.924Z,61.53
2023-04-15T10:34:26.072Z,60.19
2023-04-15T10:36:56.500Z,60.80
2023-04-15T10:39:43.471Z,59.79
2023-04-15T10:42:15.361Z,59.11
2023-04-15T10:44:48.487Z,59.98
2023-04-15T10:47:20.155Z,59.55
2023-04-15T10:50:01.293Z,59.66
2023-04-15T10:52:29.325Z,58.63
2023-04-15T10:55:16.408Z,60.13
2023-04-15T10:57:44.055Z,59.31
2023-04-15T11:00:15.866Z,57.68
2023-04-15T11:02:48.421Z,58.04
2023-04-15T11:05:16.732Z,58.48
2023-04-15T11:07:46.814Z,56.82
2023-04-15T11:10:25.897Z,56.79
2023-04-15T11:12:54.527Z,55.81
2023-04-15T11:15:38.839Z,57.90
2023-04-15T11:18:13.551Z,56.91
2023-04-15T11:20:42.067Z,55.54
2023-04-15T11:23:15.310Z,56.89
2023-04-15T11:25:43.535Z,56.77
2023-04-15T11:28:11.970Z,56.27
2023-04-15T11:30:39.440Z,55.58
2023-04-15T11:33:10.289Z,55.53
2023-04-15T11:35:36.871Z,54.73
2023-04-15T11:38:05.457Z,54.97
2023-04-15T11:40:33.561Z,55.36
2023-04-15T11:43:18.553Z,53.94
2023-04-15T11:45:52.945Z,54.41
2023-04-15T11:48:21.971Z,52.71
2023-04-15T11:50:56.967Z,54.85
2023-04-15T11:53:24.606Z,52.69
2023-04-15T11:55:53.414Z,50.93
2023-04-15T11:58:25.289Z,50.15
2023-04-15T12:00:57.934Z,51.53
2023-04-15T12:03:37.762Z,50.72
2023-04-15T12:06:19.898Z,52.34
2023-04-15T12:08:55.585Z,51.23
2023-04-15T12:11:31.032Z,50.22
2023-04-15T12:13:59.627Z,50.42
2023-04-15T12:16:28.825Z,50.80
2023-04-15T12:18:59.785Z,51.81
2023-04-15T12:21:29.186Z,49.75
2023-04-15T12:23:57.279Z,50.87
2023-04-15T12:26:51.927Z,51.98
2023-04-15T12:29:18.739Z,51.59
2023-04-15T12:31:56.851Z,51.12
2023-04-15T12:34:31.588Z,50.50
2023-04-15T12:36:59.829Z,50.39
2023-04-15T12:39:30.477Z,50.05
2023-04-15T12:41:57.353Z,50.74
2023-04-15T12:44:24.535Z,51.85
2023-04-15T12:46:53.496Z,52.73
2023-04-15T12:49:24.334Z,51.13
2023-04-15T12:51:53.456Z,50.27
2023-04-15T12:54:20.031Z,51.08
2023-04-15T12:56:48.238Z,51.52
2023-04-15T12:59:16.613Z,52.43
2023-04-15T13:01:43.551Z,52.73
2023-04-15T13:04:10.372Z,53.83
2023-04-15T13:06:36.993Z,53.58
2023-04-15T13:09:05.292Z,52.30
2023-04-15T13:11:33.740Z,53.27
2023-04-15T13:14:01.928Z,53.63
2023-04-15T13:16:28.716Z,52.62
2023-04-15T13:18:55.497Z,53.65
2023-04-15T13:21:22.150Z,52.46
2023-04-15T13:23:49.783Z,52.64
2023-04-15T13:26:16.230Z,52.60
2023-04-15T13:28:42.712Z,53.77
2023-04-15T13:31:09.178Z,53.41
2023-04-15T13:33:35.742Z,53.70
2023-04-15T13:36:02.352Z,53.53
2023-04-15T13:38:28.800Z,53.21
2023-04-15T13:40:55.284Z,53.92
2023-04-15T13:43:22.276Z,53.90
2023-04-15T13:45:48.925Z,53.12
2023-04-15T13:48:15.463Z,52.91
2023-04-15T13:50:45.255Z,53.56
2023-04-15T13:53:12.987Z,53.04
2023-04-15T13:55:41.745Z,53.99
2023-04-15T13:58:09.296Z,55.25
2023-04-15T14:00:36.016Z,54.75
2023-04-15T14:03:02.694Z,54.47
2023-04-15T14:05:29.416Z,54.80
2023-04-15T14:07:55.890Z,55.86
2023-04-15T14:10:22.329Z,56.29
2023-04-15T14:12:48.929Z,56.63
2023-04-15T14:15:15.384Z,57.02
2023-04-15T14:17:42.520Z,56.34
2023-04-15T14:20:09.847Z,58.34
2023-04-15T14:22:36.418Z,58.24
2023-04-15T14:25:02.987Z,58.98
2023-04-15T14:27:29.474Z,58.63
2023-04-15T14:29:57.719Z,58.82
2023-04-15T14:32:25.949Z,59.69
2023-04-15T14:34:52.603Z,59.92
2023-04-15T14:37:19.201Z,60.76
2023-04-15T14:39:45.670Z,61.69
2023-04-15T14:42:12.095Z,62.94
2023-04-15T14:44:38.619Z,62.96
2023-04-15T14:47:05.850Z,62.80
2023-04-15T14:49:32.470Z,62.68
2023-04-15T14:51:58.866Z,63.43
2023-04-15T14:54:25.378Z,64.59
2023-04-15T14:56:51.899Z,63.75
2023-04-15T14:59:18.398Z,63.67
2023-04-15T15:01:44.938Z,64.30
2023-04-15T15:04:12.008Z,64.74
2023-04-15T15:06:38.978Z,65.29
2023-04-15T15:09:05.509Z,64.20
2023-04-15T15:11:32.066Z,66.22
2023-04-15T15:13:58.587Z,67.34
2023-04-15T15:16:25.502Z,66.80
2023-04-15T15:18:52.015Z,67.25
2023-04-15T15:21:18.662Z,67.09
2023-04-15T15:23:45.885Z,67.05
2023-04-15T15:26:12.598Z,66.42
2023-04-15T15:28:39.181Z,67.17
2023-04-15T15:31:05.911Z,66.87
2023-04-15T15:33:32.852Z,68.00
2023-04-15T15:35:59.364Z,68.62
2023-04-15T15:38:26.293Z,68.14
2023-04-15T15:40:52.815Z,67.77
2023-04-15T15:43:19.309Z,69.46
2023-04-15T15:45:45.787Z,69.59
2023-04-15T15:48:12.659Z,71.09
2023-04-15T15:50:39.158Z,71.39
2023-04-15T15:53:05.650Z,72.16
2023-04-15T15:55:32.238Z,72.59
2023-04-15T15:57:58.588Z,74.09
2023-04-15T16:00:25.219Z,74.30
2023-04-15T16:03:06.736Z,75.92
2023-04-15T16:05:34.205Z,75.22
2023-04-15T16:08:00.690Z,75.66
2023-04-15T16:10:27.534Z,75.51
2023-04-15T16:12:54.478Z,77.02
2023-04-15T16:15:21.020Z,76.19
2023-04-15T16:17:47.558Z,77.17
2023-04-15T16:20:14.050Z,77.04
2023-04-15T16:22:40.662Z,77.89
2023-04-15T16:25:07.380Z,77.66
2023-04-15T16:27:35.010Z,77.96
2023-04-15T16:30:03.909Z,78.40
2023-04-15T16:32:30.666Z,78.00
2023-04-15T16:34:57.164Z,79.42
2023-04-15T16:37:23.848Z,79.57
2023-04-15T16:39:50.390Z,80.50
2023-04-15T16:42:17.195Z,81.89
2023-04-15T16:44:43.674Z,81.90
2023-04-15T16:47:11.899Z,82.61
2023-04-15T16:49:38.398Z,83.75
2023-04-15T16:52:05.024Z,84.20
2023-04-15T16:54:33.461Z,85.69
2023-04-15T16:56:59.883Z,84.90
2023-04-15T16:59:27.389Z,83.46
2023-04-15T17:01:54.429Z,83.24
2023-04-15T17:04:21.070Z,85.00
2023-04-15T17:06:48.071Z,85.65
2023-04-15T17:09:14.477Z,87.01
2023-04-15T17:11:40.931Z,89.36
2023-04-15T17:14:07.708Z,89.96
2023-04-15T17:16:34.189Z,91.30
2023-04-15T17:19:00.709Z,92.83
2023-04-15T17:21:27.420Z,92.83
2023-04-15T17:23:53.939Z,92.65
2023-04-15T17:26:20.693Z,91.88
2023-04-15T17:28:47.175Z,91.83
2023-04-15T17:31:13.730Z,93.00
2023-04-15T17:34:01.560Z,94.54
2023-04-15T17:36:27.657Z,95.87
2023-04-15T17:38:56.998Z,95.42
2023-04-15T17:41:24.192Z,97.83
2023-04-15T17:43:50.925Z,96.87
2023-04-15T17:46:19.290Z,96.33
2023-04-15T17:48:47.649Z,96.52
2023-04-15T17:51:15.124Z,94.95
2023-04-15T17:53:41.668Z,95.17
2023-04-15T17:56:08.111Z,96.31
2023-04-15T17:58:34.988Z,96.33
2023-04-15T18:01:01.534Z,96.08
2023-04-15T18:03:28.272Z,97.33
2023-04-15T18:05:55.930Z,99.97
2023-04-15T18:08:22.454Z,100.00
2023-04-15T18:10:48.939Z,100.00
2023-04-15T18:13:15.484Z,100.00
2023-04-15T18:15:42.057Z,100.00
2023-04-15T18:18:08.569Z,100.00
2023-04-15T18:20:35.077Z,100.00
2023-04-15T18:23:01.688Z,100.00
2023-04-15T18:25:29.969Z,100.00
2023-04-15T18:27:56.597Z,100.00
2023-04-15T18:30:23.623Z,100.00
2023-04-15T18:32:50.086Z,100.00
2023-04-15T18:35:17.200Z,100.00
2023-04-15T18:37:43.756Z,100.00
2023-04-15T18:40:10.665Z,100.00
2023-04-15T18:42:37.279Z,100.00
2023-04-15T18:45:03.882Z,100.00
2023-04-15T18:47:30.438Z,100.00
2023-04-15T18:49:58.516Z,100.00
2023-04-15T18:52:25.104Z,100.00
2023-04-15T18:54:51.580Z,100.00
2023-04-15T18:57:24.319Z,100.00
2023-04-15T18:59:57.804Z,100.00
2023-04-15T19:02:24.582Z,100.00
2023-04-15T19:04:51.255Z,100.00
2023-04-15T19:07:17.789Z,100.00
2023-04-15T19:09:44.298Z,100.00
2023-04-15T19:12:10.943Z,100.00
2023-04-15T19:14:37.330Z,100.00
2023-04-15T19:17:03.964Z,100.00
2023-04-15T19:19:30.533Z,100.00
2023-04-15T19:21:57.602Z,100.00
2023-04-15T19:24:24.206Z,100.00
2023-04-15T19:26:51.237Z,100.00
2023-04-15T19:29:18.462Z,100.00
2023-04-15T19:31:45.507Z,100.00
2023-04-15T19:34:12.439Z,100.00
2023-04-15T19:36:39.408Z,100.00
2023-04-15T19:39:06.411Z,100.00
2023-04-15T19:41:33.117Z,100.00
2023-04-15T19:44:00.148Z,100.00
2023-04-15T19:46:27.500Z,100.00
2023-04-15T19:48:55.246Z,100.00
2023-04-15T19:51:21.852Z,100.00
2023-04-15T19:53:49.684Z,100.00
2023-04-15T19:56:16.450Z,100.00
2023-04-15T19:58:46.449Z,100.00
2023-04-15T20:01:13.293Z,100.00
2023-04-15T20:03:39.978Z,100.00
2023-04-15T20:06:06.561Z,100.00
2023-04-15T20:08:33.010Z,100.00
2023-04-15T20:11:01.128Z,100.00
2023-04-15T20:13:27.707Z,100.00
2023-04-15T20:15:54.125Z,100.00
2023-04-15T20:18:20.656Z,100.00
2023-04-15T20:20:47.247Z,100.00
2023-04-15T20:23:13.743Z,100.00
2023-04-15T20:25:41.904Z,100.00
2023-04-15T20:28:08.338Z,100.00
2023-04-15T20:30:34.909Z,100.00
2023-04-15T20:33:01.497Z,100.00
2023-04-15T20:35:28.191Z,100.00
2023-04-15T20:37:54.679Z,100.00
2023-04-15T20:40:21.561Z,100.00
2023-04-15T20:42:47.990Z,100.00
2023-04-15T20:45:14.598Z,100.00
2023-04-15T20:47:41.471Z,100.00
2023-04-15T20:50:08.870Z,100.00
2023-04-15T20:52:35.420Z,100.00
2023-04-15T20:55:01.910Z,100.00
2023-04-15T20:57:30.110Z,100.00
2023-04-15T20:59:56.676Z,100.00
2023-04-15T21:02:24.298Z,100.00
2023-04-15T21:04:50.971Z,100.00
2023-04-15T21:07:17.438Z,100.00
2023-04-15T21:09:43.917Z,100.00
2023-04-15T21:12:11.212Z,100.00
2023-04-15T21:14:38.915Z,100.00
2023-04-15T21:17:08.615Z,100.00
2023-04-15T21:19:37.219Z,100.00
2023-04-15T21:22:03.973Z,100.00
2023-04-15T21:24:30.626Z,100.00
2023-04-15T21:26:57.260Z,100.00
2023-04-15T21:29:23.916Z,100.00
2023-04-15T21:31:50.787Z,100.00
2023-04-15T21:34:17.632Z,100.00
2023-04-15T21:36:44.453Z,100.00
2023-04-15T21:39:11.095Z,100.00
2023-04-15T21:41:37.695Z,100.00
2023-04-15T21:44:04.562Z,100.00
2023-04-15T21:46:32.751Z,100.00
2023-04-15T21:49:00.068Z,100.00
2023-04-15T21:51:26.964Z,100.00
2023-04-15T21:53:53.513Z,100.00
2023-04-15T21:56:22.543Z,100.00
2023-04-15T21:58:49.012Z,100.00
2023-04-15T22:01:15.515Z,100.00
2023-04-15T22:03:42.193Z,100.00
2023-04-15T22:06:15.597Z,100.00
2023-04-15T22:08:55.120Z,100.00
2023-04-15T22:11:27.877Z,100.00
2023-04-15T22:13:55.151Z,100.00
2023-04-15T22:16:24.016Z,100.00
2023-04-15T22:18:50.813Z,100.00
2023-04-15T22:21:17.272Z,100.00
2023-04-15T22:23:47.641Z,100.00
2023-04-15T22:26:14.620Z,100.00
2023-04-15T22:28:41.653Z,100.00
2023-04-15T22:31:08.188Z,100.00
2023-04-15T22:33:34.618Z,100.00
2023-04-15T22:36:01.184Z,100.00
2023-04-15T22:38:27.589Z,100.00
2023-04-15T22:40:54.332Z,100.00
2023-04-15T22:43:20.825Z,100.00
2023-04-15T22:45:51.382Z,100.00
2023-04-15T22:48:18.852Z,100.00
2023-04-15T22:50:45.734Z,100.00
2023-04-15T22:53:12.549Z,100.00
2023-04-15T22:55:39.211Z,100.00
2023-04-15T22:58:05.880Z,100.00
2023-04-15T23:00:32.327Z,100.00
2023-04-15T23:02:59.104Z,100.00
2023-04-15T23:05:25.753Z,100.00
2023-04-15T23:07:52.307Z,100.00
2023-04-15T23:10:18.757Z,100.00
2023-04-15T23:12:45.125Z,100.00
2023-04-15T23:15:11.771Z,100.00
2023-04-15T23:17:38.435Z,100.00
2023-04-15T23:20:05.670Z,100.00
2023-04-15T23:22:32.098Z,100.00
2023-04-15T23:24:58.508Z,100.00
2023-04-15T23:27:24.947Z,100.00
2023-04-15T23:29:51.401Z,100.00
2023-04-15T23:32:17.901Z,100.00
2023-04-15T23:34:44.376Z,100.00
2023-04-15T23:37:11.373Z,100.00
2023-04-15T23:39:37.862Z,100.00
2023-04-15T23:42:04.327Z,100.00
2023-04-15T23:44:30.722Z,100.00
2023-04-15T23:46:57.418Z,100.00
2023-04-15T23:49:23.951Z,100.00
2023-04-15T23:51:51.064Z,100.00
2023-04-15T23:54:17.606Z,100.00
2023-04-15T23:56:44.006Z,100.00
2023-04-15T23:59:10.702Z,100.00
